KPWTKCLM

Guest
Details From KPWT - Bremerton National
To KCLM - William R Fairchild Intl
Flight Number -
Tags Routegen
Created
Modified
Stats Distance 49 nm / 90 km
Max Altitude 0 ft / 0 m
Waypoints 2
Social Downloads 4
Likes 0
Share VATSIM

Download

Looking for another format? Having issues loading an existing format? Contact us
Advertisement - Login to hide

Notes

None

Route

KPWT KCLM

ID Type Via Altitude Latitude Longitude Leg Dist Tot Dist Heading (true) Name
O KPWT APT - 0 ft / 0 m 47.48333˚ -122.77138˚ - 0 nm - -
O KCLM APT - 0 ft / 0 m 48.12104˚ -123.51152˚ 48 nm 48 nm 322° / 322° -

Altitude Profile

Advertisement - Login to hide

KPWT

Details ICAO KPWT (PWT)
Name Bremerton National
Region United States
Timezone America/Los_Angeles (UTC-7.0)
Stats Elevation 444 ft / 135 m (AMSL)
Location 47.490240° -122.764815°
Runways 1
Magnetic Variation 15.714° E

METAR

KPWT 210856Z AUTO 00000KT 10SM OVC021 09/08 A3007 RMK AO2 SLP201 T00940083 53001

Decode

TAF

TAF KPWT 210523Z 2106/2206 06005KT P6SM BKN035 BKN045 FM210900 VRB03KT P6SM OVC015 FM211900 04005KT P6SM BKN018 FM212000 02006KT P6SM SCT030 SCT250

Decode

Departure Runways

ID Width Length Bearing (true) Bearing (mag) Surface Threshold Offset Overrun Length
01 151 ft / 46 m 5,997 ft / 1,828 m 32.69° 16.98° Asphalt 0 ft / 0 m 0 ft / 0 m
19 151 ft / 46 m 5,997 ft / 1,828 m 212.70° 196.99° Asphalt 0 ft / 0 m 1,243 ft / 379 m

KCLM

Details ICAO KCLM (CLM)
Name WILLIAM R FAIRCHILD INTL
Region United States
Timezone America/Los_Angeles (UTC-7.0)
Stats Elevation 291 ft / 89 m (AMSL)
Location 48.120829° -123.500070°
Runways 2
Magnetic Variation 15.989° E

METAR

KCLM 210853Z AUTO 28009KT 10SM OVC044 10/07 A3008 RMK AO2 SLP186 T01000067 58004

Decode

TAF

KCLM 210523Z 2106/2206 28008KT P6SM SKC FM210900 27008KT P6SM BKN050 FM211100 30008KT P6SM OVC025 FM211900 33007KT P6SM SCT030 SCT250

Decode

Destination Runways

ID Width Length Bearing (true) Bearing (mag) Surface Threshold Offset Overrun Length
08 151 ft / 46 m 6,353 ft / 1,936 m 104.61° 88.62° Asphalt 0 ft / 0 m 0 ft / 0 m
13 49 ft / 15 m 3,244 ft / 989 m 147.64° 131.65° Asphalt 0 ft / 0 m 0 ft / 0 m
26 151 ft / 46 m 6,353 ft / 1,936 m 284.63° 268.64° Asphalt 1,355 ft / 413 m 0 ft / 0 m
31 49 ft / 15 m 3,244 ft / 989 m 327.64° 311.65° Asphalt 0 ft / 0 m 0 ft / 0 m

Approach Navaids

Runway Type Ident Frequency Range Bearing (true) Bearing (mag) Slope Elevation
08 Localiser ICLM 108.90 MHz 18 nm / 33 km 104.64° 88.65° - 291 ft / 89 m (AMSL)
08 Glidescope ICLM 108.90 MHz 10 nm / 19 km 104.62° 88.63° 3.00° 281 ft / 86 m (AMSL)

Popular Alternatives